createdAt,value
2019-05-19T00:01:59.965Z,23.60
2019-05-19T00:04:30.211Z,25.00
2019-05-19T00:07:00.459Z,25.90
2019-05-19T00:09:30.652Z,24.33
2019-05-19T00:12:00.832Z,26.20
2019-05-19T00:14:31.051Z,25.50
2019-05-19T00:17:01.230Z,26.70
2019-05-19T00:19:31.575Z,25.63
2019-05-19T00:22:01.773Z,27.40
2019-05-19T00:24:32.117Z,27.00
2019-05-19T00:27:02.488Z,28.73
2019-05-19T00:29:32.721Z,28.70
2019-05-19T00:32:03.083Z,30.20
2019-05-19T00:34:33.284Z,30.47
2019-05-19T00:37:04.287Z,30.50
2019-05-19T00:39:34.553Z,33.10
2019-05-19T00:42:04.703Z,31.90
2019-05-19T00:44:34.977Z,30.63
2019-05-19T00:47:05.128Z,34.73
2019-05-19T00:49:41.335Z,34.60
2019-05-19T00:52:07.580Z,35.20
2019-05-19T00:54:37.776Z,34.10
2019-05-19T00:57:08.335Z,36.20
2019-05-19T00:59:40.019Z,34.90
2019-05-19T01:02:10.198Z,36.23
2019-05-19T01:04:40.431Z,36.00
2019-05-19T01:07:10.573Z,39.70
2019-05-19T01:09:40.745Z,38.77
2019-05-19T01:12:10.912Z,40.00
2019-05-19T01:14:41.076Z,39.60
2019-05-19T01:17:11.218Z,42.60
2019-05-19T01:19:54.954Z,42.70
2019-05-19T01:22:13.456Z,43.73
2019-05-19T01:24:43.617Z,43.93
2019-05-19T01:27:13.854Z,42.63
2019-05-19T01:29:44.031Z,46.37
2019-05-19T01:32:14.196Z,43.70
2019-05-19T01:34:44.384Z,42.73
2019-05-19T01:37:14.555Z,43.73
2019-05-19T01:39:44.724Z,43.00
2019-05-19T01:42:15.960Z,43.73
2019-05-19T01:44:46.116Z,44.23
2019-05-19T01:47:16.272Z,44.83
2019-05-19T01:49:46.432Z,43.83
2019-05-19T01:52:16.642Z,42.50
2019-05-19T01:54:46.805Z,44.33
2019-05-19T01:57:16.973Z,46.57
2019-05-19T01:59:47.131Z,47.50
2019-05-19T02:02:17.340Z,42.63
2019-05-19T02:04:47.515Z,42.93
2019-05-19T02:07:17.680Z,41.13
2019-05-19T02:09:47.884Z,40.53
2019-05-19T02:12:18.060Z,44.13
2019-05-19T02:14:48.219Z,45.37
2019-05-19T02:17:18.384Z,47.90
2019-05-19T02:19:48.577Z,49.03
2019-05-19T02:22:18.739Z,46.63
2019-05-19T02:24:48.904Z,48.13
2019-05-19T02:27:19.108Z,49.40
2019-05-19T02:29:49.272Z,52.47
2019-05-19T02:32:19.431Z,49.80
2019-05-19T02:34:49.589Z,52.70
2019-05-19T02:37:19.792Z,49.90
2019-05-19T02:39:49.960Z,53.70
2019-05-19T02:42:20.620Z,56.70
2019-05-19T02:44:52.543Z,59.57
2019-05-19T02:47:24.098Z,57.20
2019-05-19T02:49:57.048Z,53.60
2019-05-19T02:52:28.650Z,55.13
2019-05-19T02:55:01.226Z,58.83
2019-05-19T02:57:32.207Z,61.47
2019-05-19T03:00:02.690Z,59.60
2019-05-19T03:02:32.920Z,61.30
2019-05-19T03:05:03.081Z,61.60
2019-05-19T03:07:33.278Z,54.83
2019-05-19T03:10:03.655Z,55.10
2019-05-19T03:12:34.047Z,53.53
2019-05-19T03:15:04.348Z,48.50
2019-05-19T03:17:35.556Z,48.10
2019-05-19T03:20:05.830Z,48.13
2019-05-19T03:22:36.020Z,50.03
2019-05-19T03:25:06.790Z,53.57
2019-05-19T03:27:36.933Z,56.20
2019-05-19T03:30:24.798Z,57.80
2019-05-19T03:32:59.065Z,57.10
2019-05-19T03:35:29.209Z,61.47
2019-05-19T03:37:59.406Z,56.97
2019-05-19T03:40:29.573Z,60.10
2019-05-19T03:42:59.737Z,60.30
2019-05-19T03:45:29.888Z,60.50
2019-05-19T03:48:00.060Z,61.30
2019-05-19T03:50:30.212Z,59.53
2019-05-19T03:53:00.428Z,63.23
2019-05-19T03:55:30.619Z,63.30
2019-05-19T03:58:00.753Z,62.10
2019-05-19T04:00:30.921Z,59.73
2019-05-19T04:03:01.212Z,59.43
2019-05-19T04:05:31.376Z,59.30
2019-05-19T04:08:01.544Z,59.77
2019-05-19T04:10:31.697Z,62.70
2019-05-19T04:13:01.984Z,60.30
2019-05-19T04:15:32.338Z,60.77
2019-05-19T04:18:02.548Z,61.63
2019-05-19T04:20:32.793Z,59.43
2019-05-19T04:23:02.984Z,61.57
2019-05-19T04:25:33.192Z,57.70
2019-05-19T04:28:03.357Z,57.57
2019-05-19T04:30:33.527Z,55.57
2019-05-19T04:33:03.706Z,54.13
2019-05-19T04:35:34.965Z,53.93
2019-05-19T04:38:05.134Z,50.97
2019-05-19T04:40:35.286Z,49.90
2019-05-19T04:43:05.543Z,50.77
2019-05-19T04:45:35.699Z,50.43
2019-05-19T04:48:09.386Z,51.40
2019-05-19T04:50:37.743Z,48.40
2019-05-19T04:53:07.919Z,45.07
2019-05-19T04:55:38.164Z,45.37
2019-05-19T04:58:08.324Z,44.03
2019-05-19T05:00:38.528Z,42.97
2019-05-19T05:03:08.679Z,42.20
2019-05-19T05:05:38.859Z,41.60
2019-05-19T05:08:27.214Z,39.40
2019-05-19T05:10:41.840Z,38.07
2019-05-19T05:13:13.084Z,39.93
2019-05-19T05:15:43.235Z,38.50
2019-05-19T05:18:13.429Z,38.97
2019-05-19T05:20:43.593Z,39.33
2019-05-19T05:23:13.830Z,38.80
2019-05-19T05:25:44.020Z,39.00
2019-05-19T05:28:14.359Z,37.70
2019-05-19T05:30:44.502Z,37.37
2019-05-19T05:33:14.663Z,36.43
2019-05-19T05:35:44.846Z,36.20
2019-05-19T05:38:15.025Z,37.30
2019-05-19T05:40:45.244Z,37.03
2019-05-19T05:43:15.399Z,38.20
2019-05-19T05:45:45.572Z,41.90
2019-05-19T05:48:15.720Z,41.30
2019-05-19T05:50:48.962Z,44.30
2019-05-19T05:53:19.236Z,43.27
2019-05-19T05:55:49.442Z,43.07
2019-05-19T05:58:19.635Z,43.30
2019-05-19T06:00:49.824Z,43.30
2019-05-19T06:03:19.987Z,41.57
2019-05-19T06:05:51.250Z,44.10
2019-05-19T06:08:23.580Z,43.10
2019-05-19T06:10:55.500Z,44.63
2019-05-19T06:13:53.560Z,46.20
2019-05-19T06:16:24.352Z,47.67
2019-05-19T06:18:56.763Z,47.13
2019-05-19T06:21:26.423Z,51.00
2019-05-19T06:23:56.589Z,52.27
2019-05-19T06:26:26.786Z,48.97
2019-05-19T06:28:56.964Z,51.43
2019-05-19T06:31:27.147Z,48.33
2019-05-19T06:33:57.327Z,47.50
2019-05-19T06:36:27.504Z,49.33
2019-05-19T06:38:57.704Z,49.77
2019-05-19T06:41:28.052Z,51.10
2019-05-19T06:43:58.210Z,51.30
2019-05-19T06:46:28.398Z,49.80
2019-05-19T06:48:58.577Z,51.77
2019-05-19T06:51:28.784Z,48.33
2019-05-19T06:53:58.972Z,51.67
2019-05-19T06:56:29.295Z,50.87
2019-05-19T06:58:59.455Z,48.57
2019-05-19T07:01:29.664Z,49.50
2019-05-19T07:03:59.815Z,50.20
2019-05-19T07:06:30.078Z,49.70
2019-05-19T07:09:00.239Z,48.53
2019-05-19T07:11:30.546Z,47.43
2019-05-19T07:14:03.001Z,49.83
2019-05-19T07:16:32.752Z,48.30
2019-05-19T07:19:02.931Z,49.37
2019-05-19T07:21:33.115Z,45.90
2019-05-19T07:24:03.325Z,46.23
2019-05-19T07:26:33.476Z,45.03
2019-05-19T07:29:03.782Z,46.40
2019-05-19T07:31:33.951Z,45.47
2019-05-19T07:34:04.260Z,45.83
2019-05-19T07:36:35.511Z,45.07
2019-05-19T07:39:07.087Z,44.90
2019-05-19T07:41:37.354Z,43.67
2019-05-19T07:44:07.573Z,43.20
2019-05-19T07:46:37.741Z,46.90
2019-05-19T07:49:07.914Z,45.87
2019-05-19T07:51:39.880Z,44.77
2019-05-19T07:54:10.158Z,45.37
2019-05-19T07:56:40.343Z,43.87
2019-05-19T07:59:10.521Z,47.20
2019-05-19T08:01:40.743Z,47.60
2019-05-19T08:04:10.931Z,49.20
2019-05-19T08:06:41.108Z,48.20
2019-05-19T08:09:11.368Z,47.30
2019-05-19T08:11:41.539Z,45.07
2019-05-19T08:14:14.586Z,47.10
2019-05-19T08:16:44.754Z,48.40
2019-05-19T08:19:15.010Z,46.03
2019-05-19T08:21:45.194Z,46.07
2019-05-19T08:24:15.373Z,44.40
2019-05-19T08:26:45.555Z,44.43
2019-05-19T08:29:15.743Z,44.67
2019-05-19T08:31:45.948Z,46.67
2019-05-19T08:34:16.211Z,46.67
2019-05-19T08:36:46.401Z,46.83
2019-05-19T08:39:16.622Z,46.13
2019-05-19T08:41:46.772Z,44.20
2019-05-19T08:44:18.040Z,46.87
2019-05-19T08:46:48.245Z,45.10
2019-05-19T08:49:18.590Z,40.90
2019-05-19T08:51:48.815Z,38.67
2019-05-19T08:54:19.209Z,42.93
2019-05-19T08:56:49.437Z,43.07
2019-05-19T08:59:19.624Z,42.17
2019-05-19T09:01:52.356Z,39.77
2019-05-19T09:04:22.532Z,39.90
2019-05-19T09:06:52.702Z,40.40
2019-05-19T09:09:22.868Z,38.63
2019-05-19T09:11:53.086Z,41.87
2019-05-19T09:14:23.251Z,41.13
2019-05-19T09:16:53.489Z,38.30
2019-05-19T09:19:23.643Z,38.50
2019-05-19T09:21:53.820Z,41.67
2019-05-19T09:24:30.380Z,38.33
2019-05-19T09:26:55.884Z,37.40
2019-05-19T09:29:26.058Z,35.60
2019-05-19T09:31:56.227Z,35.47
2019-05-19T09:34:26.396Z,36.40
2019-05-19T09:36:56.629Z,37.77
2019-05-19T09:39:26.799Z,35.17
2019-05-19T09:41:56.946Z,35.53
2019-05-19T09:44:27.221Z,35.20
2019-05-19T09:46:57.403Z,32.20
2019-05-19T09:49:34.400Z,34.37
2019-05-19T09:52:06.557Z,35.13
2019-05-19T09:54:44.757Z,33.50
2019-05-19T09:57:08.575Z,34.87
2019-05-19T09:59:38.821Z,33.33
2019-05-19T10:02:09.009Z,31.90
2019-05-19T10:04:39.305Z,34.27
2019-05-19T10:07:09.719Z,35.80
2019-05-19T10:09:56.716Z,36.53
2019-05-19T10:12:27.153Z,35.63
2019-05-19T10:14:57.392Z,35.33
2019-05-19T10:17:27.699Z,36.60
2019-05-19T10:19:57.904Z,33.30
2019-05-19T10:22:28.299Z,29.80
2019-05-19T10:25:18.573Z,29.20
2019-05-19T10:27:31.443Z,26.47
2019-05-19T10:30:01.707Z,21.93
2019-05-19T10:32:32.036Z,24.73
2019-05-19T10:35:03.852Z,21.17
2019-05-19T10:37:34.271Z,21.00
2019-05-19T10:40:05.367Z,19.90
2019-05-19T10:42:35.598Z,22.07
2019-05-19T10:45:07.248Z,21.87
2019-05-19T10:47:37.349Z,21.60
2019-05-19T10:50:07.750Z,22.60
2019-05-19T10:52:38.060Z,24.90
2019-05-19T10:55:08.873Z,24.70
2019-05-19T10:57:39.127Z,24.53
2019-05-19T11:00:09.710Z,24.53
2019-05-19T11:02:39.908Z,22.10
2019-05-19T11:05:11.323Z,24.67
2019-05-19T11:07:41.825Z,22.87
2019-05-19T11:10:12.331Z,21.70
2019-05-19T11:12:42.512Z,21.93
2019-05-19T11:15:13.253Z,22.33
2019-05-19T11:17:43.420Z,21.83
2019-05-19T11:20:13.680Z,20.40
2019-05-19T11:22:43.916Z,21.70
2019-05-19T11:25:14.297Z,22.87
2019-05-19T11:27:44.500Z,20.93
2019-05-19T11:30:15.958Z,21.37
2019-05-19T11:32:46.124Z,21.00
2019-05-19T11:35:16.461Z,21.20
2019-05-19T11:37:46.625Z,20.47
2019-05-19T11:40:16.867Z,18.40
2019-05-19T11:42:47.111Z,18.07
2019-05-19T11:45:17.534Z,20.40
2019-05-19T11:47:47.721Z,19.10
2019-05-19T11:50:18.343Z,19.80
2019-05-19T11:52:48.601Z,19.90
2019-05-19T11:55:20.745Z,19.20
2019-05-19T11:57:50.915Z,18.70
2019-05-19T12:00:21.204Z,14.40
2019-05-19T12:02:51.445Z,14.40
2019-05-19T12:05:21.856Z,11.60
2019-05-19T12:07:52.087Z,15.30
2019-05-19T12:10:22.528Z,12.00
2019-05-19T12:12:52.692Z,12.50
2019-05-19T12:15:23.097Z,9.77
2019-05-19T12:17:53.375Z,8.70
2019-05-19T12:20:23.618Z,8.77
2019-05-19T12:22:53.777Z,9.13
2019-05-19T12:25:25.192Z,8.87
2019-05-19T12:27:55.456Z,8.67
2019-05-19T12:30:25.720Z,9.27
2019-05-19T12:32:59.206Z,7.30
2019-05-19T12:35:27.844Z,6.70
2019-05-19T12:37:58.031Z,6.97
2019-05-19T12:40:28.329Z,6.70
2019-05-19T12:42:58.565Z,6.27
2019-05-19T12:45:28.945Z,6.30
2019-05-19T12:47:59.219Z,7.60
2019-05-19T12:50:29.367Z,7.23
2019-05-19T12:52:59.639Z,7.67
2019-05-19T12:55:29.888Z,8.53
2019-05-19T12:58:00.044Z,10.50
2019-05-19T13:00:30.232Z,8.50
2019-05-19T13:03:00.445Z,8.93
2019-05-19T13:05:30.645Z,9.10
2019-05-19T13:08:00.808Z,7.50
2019-05-19T13:10:31.024Z,7.97
2019-05-19T13:13:01.181Z,7.43
2019-05-19T13:15:31.336Z,8.20
2019-05-19T13:18:01.489Z,8.60
2019-05-19T13:20:31.632Z,7.37
2019-05-19T13:23:01.896Z,7.53
2019-05-19T13:25:32.060Z,8.63
2019-05-19T13:28:03.309Z,10.03
2019-05-19T13:30:33.558Z,10.23
2019-05-19T13:33:03.750Z,8.00
2019-05-19T13:35:33.930Z,8.00
2019-05-19T13:38:04.253Z,9.03
2019-05-19T13:40:34.392Z,8.97
2019-05-19T13:43:06.474Z,8.40
2019-05-19T13:45:36.631Z,9.00
2019-05-19T13:48:06.813Z,7.00
2019-05-19T13:50:37.120Z,8.37
2019-05-19T13:53:07.253Z,7.27
2019-05-19T13:55:37.447Z,8.90
2019-05-19T13:58:07.671Z,6.90
2019-05-19T14:00:37.815Z,8.03
2019-05-19T14:03:09.634Z,8.17
2019-05-19T14:05:40.880Z,8.90
2019-05-19T14:08:11.068Z,8.80
2019-05-19T14:10:41.208Z,8.40
2019-05-19T14:13:11.344Z,9.63
2019-05-19T14:15:42.213Z,9.77
2019-05-19T14:18:12.387Z,9.40
2019-05-19T14:20:42.535Z,8.70
2019-05-19T14:23:12.707Z,9.40
2019-05-19T14:25:42.871Z,9.40
2019-05-19T14:28:13.412Z,9.03
2019-05-19T14:30:43.602Z,10.00
2019-05-19T14:33:13.978Z,9.57
2019-05-19T14:35:44.116Z,9.40
2019-05-19T14:38:14.295Z,9.80
2019-05-19T14:40:44.915Z,9.33
2019-05-19T14:43:15.556Z,10.03
2019-05-19T14:45:45.791Z,9.17
2019-05-19T14:48:15.998Z,4.37
2019-05-19T14:50:46.187Z,3.20
2019-05-19T14:53:16.383Z,2.87
2019-05-19T14:55:46.590Z,2.90
2019-05-19T14:58:16.808Z,4.60
2019-05-19T15:00:47.911Z,3.57
2019-05-19T15:03:18.999Z,3.30
2019-05-19T15:05:49.283Z,2.83
2019-05-19T15:08:19.541Z,4.10
2019-05-19T15:10:49.760Z,4.97
2019-05-19T15:13:21.051Z,2.83
2019-05-19T15:15:51.278Z,3.70
2019-05-19T15:18:21.456Z,1.80
2019-05-19T15:20:51.640Z,2.23
2019-05-19T15:23:22.022Z,3.50
2019-05-19T15:25:52.252Z,3.00
2019-05-19T15:28:23.535Z,3.30
2019-05-19T15:30:54.923Z,3.43
2019-05-19T15:33:25.130Z,3.10
2019-05-19T15:35:55.528Z,3.03
2019-05-19T15:38:25.805Z,3.13
2019-05-19T15:40:56.068Z,3.10
2019-05-19T15:43:27.616Z,2.87
2019-05-19T15:45:57.879Z,3.23
2019-05-19T15:48:28.082Z,3.00
2019-05-19T15:50:58.311Z,2.97
2019-05-19T15:53:28.660Z,2.80
2019-05-19T15:55:58.856Z,3.07
2019-05-19T15:58:29.017Z,2.90
2019-05-19T16:00:59.173Z,3.87
2019-05-19T16:03:29.437Z,3.93
2019-05-19T16:05:59.625Z,4.63
2019-05-19T16:08:29.846Z,4.97
2019-05-19T16:11:00.091Z,5.20
2019-05-19T16:13:30.303Z,4.80
2019-05-19T16:16:00.536Z,5.00
2019-05-19T16:18:30.748Z,4.87
2019-05-19T16:21:01.039Z,6.07
2019-05-19T16:23:31.362Z,6.43
2019-05-19T16:26:01.701Z,6.20
2019-05-19T16:28:32.021Z,6.03
2019-05-19T16:31:02.334Z,6.43
2019-05-19T16:33:33.587Z,6.40
2019-05-19T16:36:03.795Z,6.80
2019-05-19T16:38:34.263Z,7.17
2019-05-19T16:41:04.507Z,7.23
2019-05-19T16:43:34.805Z,6.63
2019-05-19T16:46:04.993Z,6.67
2019-05-19T16:48:35.371Z,7.80
2019-05-19T16:51:05.626Z,8.10
2019-05-19T16:53:35.847Z,9.50
2019-05-19T16:56:06.123Z,8.23
2019-05-19T16:58:44.976Z,8.40
2019-05-19T17:01:08.197Z,9.40
2019-05-19T17:03:38.394Z,9.30
2019-05-19T17:06:08.670Z,8.77
2019-05-19T17:08:39.072Z,8.93
2019-05-19T17:11:18.083Z,9.80
2019-05-19T17:13:41.587Z,10.07
2019-05-19T17:16:11.792Z,9.73
2019-05-19T17:18:42.086Z,10.20
2019-05-19T17:21:12.349Z,10.10
2019-05-19T17:23:42.624Z,11.10
2019-05-19T17:26:12.879Z,12.93
2019-05-19T17:28:43.084Z,12.13
2019-05-19T17:31:13.270Z,13.57
2019-05-19T17:33:44.739Z,13.03
2019-05-19T17:36:14.917Z,13.60
2019-05-19T17:38:45.140Z,13.17
2019-05-19T17:41:15.392Z,12.50
2019-05-19T17:43:45.688Z,12.13
2019-05-19T17:46:15.901Z,13.43
2019-05-19T17:48:46.239Z,12.20
2019-05-19T17:51:16.513Z,13.93
2019-05-19T17:53:46.788Z,14.13
2019-05-19T17:56:17.094Z,13.60
2019-05-19T17:58:47.973Z,13.43
2019-05-19T18:01:18.167Z,13.40
2019-05-19T18:03:49.172Z,13.60
2019-05-19T18:06:19.403Z,14.43
2019-05-19T18:08:49.600Z,14.10
2019-05-19T18:11:19.804Z,13.63
2019-05-19T18:13:50.000Z,13.70
2019-05-19T18:16:20.229Z,12.30
2019-05-19T18:18:50.485Z,11.90
2019-05-19T18:21:20.673Z,11.70
2019-05-19T18:23:50.868Z,11.67
2019-05-19T18:26:21.117Z,12.17
2019-05-19T18:28:51.284Z,13.00
2019-05-19T18:31:21.492Z,14.37
2019-05-19T18:33:51.768Z,14.93
2019-05-19T18:36:21.969Z,15.97
2019-05-19T18:38:52.223Z,15.77
2019-05-19T18:41:22.410Z,17.83
2019-05-19T18:43:52.605Z,17.67
2019-05-19T18:46:22.802Z,18.57
2019-05-19T18:48:53.004Z,18.90
2019-05-19T18:51:23.171Z,19.80
2019-05-19T18:53:53.375Z,20.77
2019-05-19T18:56:23.584Z,20.40
2019-05-19T18:58:53.770Z,20.10
2019-05-19T19:01:24.056Z,21.67
2019-05-19T19:03:54.345Z,21.13
2019-05-19T19:06:26.228Z,20.90
2019-05-19T19:08:56.443Z,20.73
2019-05-19T19:11:26.817Z,21.47
2019-05-19T19:13:57.156Z,22.60
2019-05-19T19:16:28.800Z,24.80
2019-05-19T19:18:59.039Z,23.60
2019-05-19T19:21:32.180Z,22.70
2019-05-19T19:24:04.241Z,23.97
2019-05-19T19:26:34.433Z,25.40
2019-05-19T19:29:04.629Z,24.73
2019-05-19T19:31:47.691Z,26.40
2019-05-19T19:34:06.756Z,26.83
2019-05-19T19:36:36.947Z,28.63
2019-05-19T19:39:07.846Z,27.37
2019-05-19T19:41:38.228Z,30.40
2019-05-19T19:44:08.564Z,31.13
2019-05-19T19:46:38.808Z,30.67
2019-05-19T19:49:09.041Z,29.80
2019-05-19T19:51:39.221Z,33.00
2019-05-19T19:54:09.505Z,32.97
2019-05-19T19:56:39.848Z,33.73
2019-05-19T19:59:10.163Z,33.87
2019-05-19T20:01:40.371Z,32.43
2019-05-19T20:04:10.762Z,32.57
2019-05-19T20:06:40.960Z,34.50
2019-05-19T20:09:11.125Z,32.63
2019-05-19T20:11:41.403Z,36.37
2019-05-19T20:14:11.590Z,36.50
2019-05-19T20:16:43.429Z,37.13
2019-05-19T20:19:13.709Z,35.77
2019-05-19T20:21:43.948Z,38.10
2019-05-19T20:24:14.217Z,38.00
2019-05-19T20:26:44.415Z,37.93
2019-05-19T20:29:14.732Z,36.77
2019-05-19T20:31:44.954Z,38.90
2019-05-19T20:34:15.271Z,37.70
2019-05-19T20:36:45.571Z,38.33
2019-05-19T20:39:15.774Z,40.27
2019-05-19T20:41:46.018Z,39.30
2019-05-19T20:44:17.517Z,39.47
2019-05-19T20:46:47.791Z,41.43
2019-05-19T20:49:17.963Z,42.20
2019-05-19T20:51:48.151Z,40.70
2019-05-19T20:54:18.328Z,41.53
2019-05-19T20:56:48.573Z,41.70
2019-05-19T20:59:18.767Z,41.60
2019-05-19T21:01:49.048Z,41.33
2019-05-19T21:04:19.274Z,42.67
2019-05-19T21:06:49.610Z,41.20
2019-05-19T21:09:19.843Z,40.70
2019-05-19T21:11:50.279Z,40.20
2019-05-19T21:14:20.565Z,41.30
2019-05-19T21:16:50.726Z,42.20
2019-05-19T21:19:22.569Z,41.13
2019-05-19T21:21:52.828Z,41.60
2019-05-19T21:24:23.045Z,40.57
2019-05-19T21:26:53.235Z,39.50
2019-05-19T21:29:23.439Z,42.50
2019-05-19T21:31:53.583Z,41.50
2019-05-19T21:34:23.782Z,41.67
2019-05-19T21:36:54.131Z,39.93
2019-05-19T21:39:24.365Z,39.70
2019-05-19T21:41:54.510Z,41.07
2019-05-19T21:44:24.711Z,40.87
2019-05-19T21:46:54.852Z,43.77
2019-05-19T21:49:25.075Z,42.47
2019-05-19T21:51:55.247Z,46.00
2019-05-19T21:54:25.470Z,46.97
2019-05-19T21:56:55.775Z,45.43
2019-05-19T21:59:26.047Z,47.40
2019-05-19T22:01:56.213Z,46.93
2019-05-19T22:04:26.434Z,48.00
2019-05-19T22:07:04.350Z,47.03
2019-05-19T22:09:34.604Z,48.47
2019-05-19T22:12:04.941Z,47.70
2019-05-19T22:14:35.162Z,50.83
2019-05-19T22:17:05.423Z,48.87
2019-05-19T22:19:35.578Z,51.63
2019-05-19T22:22:05.943Z,49.47
2019-05-19T22:24:36.069Z,52.13
2019-05-19T22:27:06.304Z,50.57
2019-05-19T22:29:36.524Z,51.47
2019-05-19T22:32:06.743Z,51.83
2019-05-19T22:34:36.910Z,51.50
2019-05-19T22:37:07.106Z,50.17
2019-05-19T22:39:37.336Z,49.37
2019-05-19T22:42:07.513Z,52.23
2019-05-19T22:44:37.758Z,49.90
2019-05-19T22:47:07.945Z,52.70
2019-05-19T22:49:38.115Z,50.87
2019-05-19T22:52:08.283Z,49.30
2019-05-19T22:54:38.472Z,48.93
2019-05-19T22:57:08.716Z,48.90
2019-05-19T22:59:38.915Z,47.13
2019-05-19T23:02:09.433Z,50.40
2019-05-19T23:04:39.772Z,47.73
2019-05-19T23:07:09.979Z,47.03
2019-05-19T23:09:40.354Z,50.37
2019-05-19T23:12:10.507Z,48.93
2019-05-19T23:14:40.901Z,46.57
2019-05-19T23:17:11.043Z,46.07
2019-05-19T23:19:41.335Z,48.20
2019-05-19T23:22:11.495Z,47.00
2019-05-19T23:24:41.663Z,46.90
2019-05-19T23:27:12.900Z,46.87
2019-05-19T23:29:43.071Z,46.20
2019-05-19T23:32:13.228Z,45.63
2019-05-19T23:34:43.414Z,45.53
2019-05-19T23:37:14.673Z,48.33
2019-05-19T23:39:44.902Z,49.20
2019-05-19T23:42:15.065Z,49.53
2019-05-19T23:44:45.339Z,53.77
2019-05-19T23:47:15.520Z,51.50
2019-05-19T23:49:45.725Z,61.17
2019-05-19T23:52:15.993Z,58.90
2019-05-19T23:54:46.139Z,61.67
2019-05-19T23:57:16.304Z,65.70
2019-05-19T23:59:46.487Z,69.60
